createdAt,value
2023-03-05T00:00:53.117Z,99527.72
2023-03-05T00:03:39.902Z,99533.00
2023-03-05T00:06:26.782Z,99531.47
2023-03-05T00:09:12.863Z,99531.31
2023-03-05T00:11:53.619Z,99526.84
2023-03-05T00:14:36.916Z,99523.34
2023-03-05T00:17:15.833Z,99520.97
2023-03-05T00:19:57.123Z,99528.63
2023-03-05T00:22:39.705Z,99527.97
2023-03-05T00:25:23.556Z,99524.47
2023-03-05T00:28:02.210Z,99521.31
2023-03-05T00:30:43.010Z,99520.16
2023-03-05T00:33:24.230Z,99521.31
2023-03-05T00:36:16.924Z,99525.44
2023-03-05T00:38:54.198Z,99517.69
2023-03-05T00:41:31.875Z,99521.66
2023-03-05T00:44:13.233Z,99513.81
2023-03-05T00:47:04.958Z,99516.53
2023-03-05T00:49:48.342Z,99509.84
2023-03-05T00:52:41.821Z,99518.16
2023-03-05T00:55:28.240Z,99507.88
2023-03-05T00:58:23.504Z,99513.19
2023-03-05T01:01:03.362Z,99505.22
2023-03-05T01:03:51.935Z,99502.22
2023-03-05T01:06:31.349Z,99495.88
2023-03-05T01:09:20.235Z,99489.75
2023-03-05T01:12:01.090Z,99491.91
2023-03-05T01:14:44.792Z,99497.06
2023-03-05T01:17:34.598Z,99486.94
2023-03-05T01:20:25.378Z,99488.59
2023-03-05T01:23:05.636Z,99487.44
2023-03-05T01:25:49.578Z,99482.28
2023-03-05T01:28:33.327Z,99483.28
2023-03-05T01:31:26.773Z,99489.44
2023-03-05T01:34:21.939Z,99489.94
2023-03-05T01:37:15.901Z,99485.78
2023-03-05T01:40:01.760Z,99484.09
2023-03-05T01:42:48.223Z,99474.94
2023-03-05T01:45:36.715Z,99484.63
2023-03-05T01:48:31.936Z,99483.78
2023-03-05T01:51:15.865Z,99482.94
2023-03-05T01:53:58.828Z,99480.78
2023-03-05T01:56:46.668Z,99490.59
2023-03-05T01:59:34.543Z,99489.44
2023-03-05T02:02:23.557Z,99484.59
2023-03-05T02:05:41.741Z,99487.59
2023-03-05T02:08:25.359Z,99486.28
2023-03-05T02:11:14.624Z,99485.59
2023-03-05T02:14:07.329Z,99486.75
2023-03-05T02:16:52.904Z,99481.78
2023-03-05T02:19:31.080Z,99488.44
2023-03-05T02:22:23.920Z,99489.78
2023-03-05T02:25:21.576Z,99490.44
2023-03-05T02:28:14.958Z,99495.09
2023-03-05T02:31:00.674Z,99490.41
2023-03-05T02:33:49.720Z,99483.06
2023-03-05T02:36:28.626Z,99481.56
2023-03-05T02:39:11.480Z,99485.56
2023-03-05T02:41:46.059Z,99481.91
2023-03-05T02:44:43.822Z,99473.88
2023-03-05T02:47:27.881Z,99472.53
2023-03-05T02:50:12.263Z,99473.22
2023-03-05T02:53:00.962Z,99467.56
2023-03-05T02:55:53.929Z,99470.19
2023-03-05T02:58:37.229Z,99461.50
2023-03-05T03:01:25.863Z,99474.84
2023-03-05T03:04:14.956Z,99463.88
2023-03-05T03:06:58.689Z,99467.84
2023-03-05T03:09:39.823Z,99466.16
2023-03-05T03:12:26.096Z,99471.53
2023-03-05T03:15:23.191Z,99469.00
2023-03-05T03:18:10.864Z,99464.47
2023-03-05T03:21:11.107Z,99465.88
2023-03-05T03:24:01.979Z,99460.56
2023-03-05T03:26:50.483Z,99454.88
2023-03-05T03:29:30.731Z,99458.75
2023-03-05T03:32:13.968Z,99454.22
2023-03-05T03:34:57.529Z,99453.41
2023-03-05T03:37:52.015Z,99455.22
2023-03-05T03:40:36.898Z,99450.38
2023-03-05T03:43:20.183Z,99446.53
2023-03-05T03:46:02.197Z,99442.84
2023-03-05T03:48:34.530Z,99447.88
2023-03-05T03:51:23.933Z,99440.69
2023-03-05T03:54:04.740Z,99448.69
2023-03-05T03:56:43.460Z,99446.50
2023-03-05T03:59:32.240Z,99451.34
2023-03-05T04:02:21.861Z,99447.97
2023-03-05T04:05:11.043Z,99453.81
2023-03-05T04:08:01.495Z,99448.16
2023-03-05T04:10:49.790Z,99445.63
2023-03-05T04:13:33.579Z,99449.25
2023-03-05T04:16:19.909Z,99446.44
2023-03-05T04:19:18.834Z,99456.41
2023-03-05T04:22:13.452Z,99443.22
2023-03-05T04:24:52.448Z,99454.34
2023-03-05T04:27:38.024Z,99450.50
2023-03-05T04:30:32.838Z,99441.84
2023-03-05T04:33:20.221Z,99447.84
2023-03-05T04:36:10.329Z,99443.38
2023-03-05T04:39:05.770Z,99441.97
2023-03-05T04:41:44.482Z,99441.97
2023-03-05T04:44:30.703Z,99444.53
2023-03-05T04:47:17.396Z,99430.59
2023-03-05T04:50:09.443Z,99431.56
2023-03-05T04:53:04.233Z,99427.41
2023-03-05T04:55:48.562Z,99428.22
2023-03-05T04:58:35.818Z,99438.91
2023-03-05T05:01:16.697Z,99431.31
2023-03-05T05:03:58.890Z,99434.28
2023-03-05T05:06:41.802Z,99432.44
2023-03-05T05:09:22.670Z,99450.28
2023-03-05T05:12:11.482Z,99441.31
2023-03-05T05:14:56.914Z,99440.28
2023-03-05T05:17:48.145Z,99444.59
2023-03-05T05:20:47.121Z,99440.09
2023-03-05T05:23:30.883Z,99445.78
2023-03-05T05:26:26.820Z,99444.22
2023-03-05T05:29:04.889Z,99441.41
2023-03-05T05:31:49.250Z,99446.50
2023-03-05T05:34:32.188Z,99442.97
2023-03-05T05:37:20.634Z,99444.75
2023-03-05T05:40:12.869Z,99450.06
2023-03-05T05:43:02.505Z,99456.28
2023-03-05T05:45:46.770Z,99441.69
2023-03-05T05:48:28.935Z,99444.91
2023-03-05T05:51:22.033Z,99437.78
2023-03-05T05:54:05.102Z,99459.50
2023-03-05T05:56:54.845Z,99449.94
2023-03-05T05:59:41.941Z,99450.78
2023-03-05T06:02:33.773Z,99457.28
2023-03-05T06:05:21.564Z,99466.41
2023-03-05T06:08:04.768Z,99462.41
2023-03-05T06:10:50.802Z,99474.19
2023-03-05T06:13:34.362Z,99477.72
2023-03-05T06:16:25.073Z,99475.66
2023-03-05T06:19:11.887Z,99479.00
2023-03-05T06:21:53.853Z,99485.78
2023-03-05T06:24:36.868Z,99485.09
2023-03-05T06:27:23.267Z,99479.25
2023-03-05T06:30:09.538Z,99491.91
2023-03-05T06:32:53.496Z,99476.47
2023-03-05T06:35:34.906Z,99487.97
2023-03-05T06:38:27.053Z,99494.50
2023-03-05T06:41:13.862Z,99483.16
2023-03-05T06:44:00.124Z,99484.47
2023-03-05T06:46:42.678Z,99486.78
2023-03-05T06:49:15.197Z,99482.25
2023-03-05T06:52:01.112Z,99488.25
2023-03-05T06:54:39.822Z,99483.13
2023-03-05T06:57:22.821Z,99485.13
2023-03-05T07:00:11.711Z,99477.41
2023-03-05T07:02:52.645Z,99480.09
2023-03-05T07:05:36.283Z,99478.38
2023-03-05T07:08:27.097Z,99463.38
2023-03-05T07:11:28.897Z,99477.91
2023-03-05T07:14:18.610Z,99483.63
2023-03-05T07:17:04.594Z,99494.84
2023-03-05T07:19:45.843Z,99491.28
2023-03-05T07:22:31.858Z,99489.63
2023-03-05T07:25:21.839Z,99488.44
2023-03-05T07:28:08.264Z,99494.16
2023-03-05T07:30:49.432Z,99490.38
2023-03-05T07:33:36.704Z,99492.09
2023-03-05T07:36:26.882Z,99494.22
2023-03-05T07:39:07.163Z,99482.72
2023-03-05T07:41:52.859Z,99487.16
2023-03-05T07:44:50.314Z,99479.72
2023-03-05T07:47:35.106Z,99492.69
2023-03-05T07:50:17.616Z,99484.13
2023-03-05T07:53:09.622Z,99482.81
2023-03-05T07:55:54.869Z,99494.69
2023-03-05T07:58:41.568Z,99484.13
2023-03-05T08:01:28.049Z,99483.66
2023-03-05T08:04:11.588Z,99470.00
2023-03-05T08:06:50.462Z,99469.94
2023-03-05T08:09:39.943Z,99468.09
2023-03-05T08:12:26.212Z,99469.84
2023-03-05T08:15:04.049Z,99469.00
2023-03-05T08:17:53.837Z,99466.34
2023-03-05T08:20:42.798Z,99469.56
2023-03-05T08:23:39.061Z,99469.00
2023-03-05T08:26:27.134Z,99466.31
2023-03-05T08:29:13.369Z,99466.16
2023-03-05T08:31:56.304Z,99461.34
2023-03-05T08:34:33.985Z,99460.06
2023-03-05T08:37:23.845Z,99458.69
2023-03-05T08:40:07.157Z,99454.44
2023-03-05T08:42:52.826Z,99461.25
2023-03-05T08:45:47.506Z,99458.41
2023-03-05T08:48:33.572Z,99452.41
2023-03-05T08:51:27.148Z,99451.91
2023-03-05T08:54:18.178Z,99461.34
2023-03-05T08:57:02.862Z,99456.16
2023-03-05T08:59:52.177Z,99452.78
2023-03-05T09:02:33.911Z,99460.13
2023-03-05T09:05:22.165Z,99460.41
2023-03-05T09:08:09.830Z,99460.56
2023-03-05T09:11:00.233Z,99466.41
2023-03-05T09:13:38.263Z,99460.72
2023-03-05T09:16:20.649Z,99453.13
2023-03-05T09:19:17.999Z,99454.94
2023-03-05T09:22:02.877Z,99458.72
2023-03-05T09:24:52.575Z,99454.31
2023-03-05T09:27:44.637Z,99460.03
2023-03-05T09:30:31.277Z,99451.38
2023-03-05T09:33:24.272Z,99453.53
2023-03-05T09:36:09.827Z,99453.63
2023-03-05T09:38:50.672Z,99445.91
2023-03-05T09:41:48.883Z,99454.41
2023-03-05T09:45:02.751Z,99454.03
2023-03-05T09:48:20.649Z,99457.38
2023-03-05T09:51:10.088Z,99453.53
2023-03-05T09:54:31.828Z,99452.06
2023-03-05T09:57:18.474Z,99446.84
2023-03-05T10:00:08.880Z,99450.09
2023-03-05T10:03:04.843Z,99445.34
2023-03-05T10:05:59.562Z,99445.72
2023-03-05T10:09:01.892Z,99438.38
2023-03-05T10:11:54.914Z,99439.66
2023-03-05T10:14:44.128Z,99441.06
2023-03-05T10:17:49.325Z,99445.50
2023-03-05T10:21:00.550Z,99438.81
2023-03-05T10:24:07.791Z,99432.94
2023-03-05T10:27:22.331Z,99424.75
2023-03-05T10:30:30.262Z,99428.84
2023-03-05T10:33:26.227Z,99422.63
2023-03-05T10:36:36.837Z,99420.94
2023-03-05T10:39:31.968Z,99422.41
2023-03-05T10:42:39.654Z,99414.81
2023-03-05T10:45:48.107Z,99414.91
2023-03-05T10:48:46.468Z,99404.03
2023-03-05T10:51:34.338Z,99407.84
2023-03-05T10:54:30.703Z,99404.03
2023-03-05T10:57:38.857Z,99414.13
2023-03-05T11:00:42.173Z,99402.66
2023-03-05T11:03:23.688Z,99403.06
2023-03-05T11:06:12.735Z,99395.34
2023-03-05T11:09:00.981Z,99386.31
2023-03-05T11:11:45.761Z,99381.75
2023-03-05T11:14:39.138Z,99378.66
2023-03-05T11:17:38.457Z,99381.31
2023-03-05T11:21:05.709Z,99372.50
2023-03-05T11:23:53.340Z,99373.78
2023-03-05T11:26:35.596Z,99375.34
2023-03-05T11:29:32.532Z,99366.03
2023-03-05T11:32:25.911Z,99360.66
2023-03-05T11:35:23.836Z,99366.00
2023-03-05T11:38:12.171Z,99355.97
2023-03-05T11:40:56.428Z,99353.91
2023-03-05T11:43:52.773Z,99356.13
2023-03-05T11:46:39.413Z,99353.50
2023-03-05T11:49:46.830Z,99344.88
2023-03-05T11:52:56.946Z,99343.81
2023-03-05T11:55:56.796Z,99347.91
2023-03-05T11:59:08.871Z,99333.22
2023-03-05T12:02:01.115Z,99326.59
2023-03-05T12:04:54.363Z,99326.22
2023-03-05T12:07:45.227Z,99318.88
2023-03-05T12:10:30.327Z,99318.78
2023-03-05T12:13:41.474Z,99312.13
2023-03-05T12:16:38.920Z,99312.19
2023-03-05T12:19:36.289Z,99304.09
2023-03-05T12:22:29.674Z,99292.78
2023-03-05T12:25:37.976Z,99293.66
2023-03-05T12:28:20.157Z,99289.91
2023-03-05T12:31:21.626Z,99295.28
2023-03-05T12:34:23.112Z,99290.81
2023-03-05T12:37:15.530Z,99284.28
2023-03-05T12:40:07.305Z,99279.13
2023-03-05T12:43:00.190Z,99279.13
2023-03-05T12:45:46.787Z,99281.84
2023-03-05T12:49:05.372Z,99274.38
2023-03-05T12:51:50.580Z,99281.44
2023-03-05T12:54:44.838Z,99273.63
2023-03-05T12:57:26.125Z,99266.81
2023-03-05T13:00:53.785Z,99271.56
2023-03-05T13:03:52.469Z,99263.31
2023-03-05T13:06:36.620Z,99260.31
2023-03-05T13:09:33.597Z,99261.09
2023-03-05T13:12:23.335Z,99255.25
2023-03-05T13:15:09.797Z,99262.38
2023-03-05T13:18:22.529Z,99260.53
2023-03-05T13:21:22.178Z,99260.53
2023-03-05T13:24:05.386Z,99270.72
2023-03-05T13:26:51.449Z,99261.41
2023-03-05T13:29:35.967Z,99269.53
2023-03-05T13:32:34.316Z,99280.88
2023-03-05T13:35:18.160Z,99281.66
2023-03-05T13:38:01.806Z,99275.88
2023-03-05T13:40:44.752Z,99276.75
2023-03-05T13:43:34.608Z,99274.31
2023-03-05T13:46:25.088Z,99273.97
2023-03-05T13:49:30.567Z,99277.84
2023-03-05T13:52:15.888Z,99276.41
2023-03-05T13:55:00.261Z,99268.38
2023-03-05T13:57:47.565Z,99260.34
2023-03-05T14:00:42.133Z,99266.03
2023-03-05T14:03:34.901Z,99250.78
2023-03-05T14:06:28.992Z,99251.25
2023-03-05T14:09:50.397Z,99259.28
2023-03-05T14:12:51.480Z,99252.47
2023-03-05T14:15:40.287Z,99252.41
2023-03-05T14:18:33.835Z,99257.41
2023-03-05T14:21:20.362Z,99254.50
2023-03-05T14:23:55.774Z,99245.19
2023-03-05T14:27:06.987Z,99253.78
2023-03-05T14:29:55.760Z,99248.53
2023-03-05T14:32:42.877Z,99243.19
2023-03-05T14:35:54.178Z,99259.31
2023-03-05T14:38:48.829Z,99252.25
2023-03-05T14:41:49.110Z,99245.19
2023-03-05T14:44:36.095Z,99240.47
2023-03-05T14:47:13.946Z,99237.00
2023-03-05T14:50:03.817Z,99222.81
2023-03-05T14:52:39.220Z,99221.78
2023-03-05T14:55:23.115Z,99224.66
2023-03-05T14:58:15.308Z,99223.28
2023-03-05T15:01:02.360Z,99226.22
2023-03-05T15:03:43.225Z,99217.19
2023-03-05T15:06:40.490Z,99226.63
2023-03-05T15:09:21.839Z,99210.38
2023-03-05T15:12:13.946Z,99215.97
2023-03-05T15:15:18.864Z,99214.13
2023-03-05T15:17:57.517Z,99216.09
2023-03-05T15:20:40.999Z,99214.84
2023-03-05T15:23:33.175Z,99217.75
2023-03-05T15:26:15.829Z,99212.50
2023-03-05T15:29:13.615Z,99214.53
2023-03-05T15:32:04.472Z,99215.91
2023-03-05T15:34:58.828Z,99194.41
2023-03-05T15:37:44.632Z,99208.59
2023-03-05T15:40:32.455Z,99200.59
2023-03-05T15:43:15.390Z,99209.19
2023-03-05T15:45:57.851Z,99208.69
2023-03-05T15:48:50.248Z,99209.44
2023-03-05T15:51:30.764Z,99207.94
2023-03-05T15:54:09.846Z,99205.94
2023-03-05T15:56:54.211Z,99209.84
2023-03-05T15:59:40.514Z,99211.50
2023-03-05T16:02:20.624Z,99213.03
2023-03-05T16:05:07.847Z,99206.41
2023-03-05T16:07:53.820Z,99203.44
2023-03-05T16:10:39.255Z,99202.16
2023-03-05T16:13:28.680Z,99210.94
2023-03-05T16:16:14.738Z,99210.63
2023-03-05T16:18:51.030Z,99213.06
2023-03-05T16:21:36.030Z,99217.91
2023-03-05T16:24:25.570Z,99223.09
2023-03-05T16:27:04.628Z,99218.94
2023-03-05T16:29:51.192Z,99224.94
2023-03-05T16:32:42.157Z,99224.03
2023-03-05T16:35:28.678Z,99224.13
2023-03-05T16:38:08.823Z,99228.19
2023-03-05T16:41:07.192Z,99221.38
2023-03-05T16:43:57.059Z,99226.41
2023-03-05T16:46:43.468Z,99216.66
2023-03-05T16:49:21.652Z,99222.91
2023-03-05T16:52:18.198Z,99219.72
2023-03-05T16:54:59.695Z,99215.00
2023-03-05T16:57:51.208Z,99218.69
2023-03-05T17:00:37.877Z,99219.09
2023-03-05T17:03:21.488Z,99222.41
2023-03-05T17:06:13.919Z,99222.00
2023-03-05T17:08:52.838Z,99224.59
2023-03-05T17:11:41.619Z,99232.00
2023-03-05T17:14:27.795Z,99223.16
2023-03-05T17:17:11.789Z,99224.56
2023-03-05T17:19:57.556Z,99227.16
2023-03-05T17:22:48.086Z,99231.22
2023-03-05T17:25:28.796Z,99231.03
2023-03-05T17:28:31.044Z,99239.81
2023-03-05T17:31:14.937Z,99240.09
2023-03-05T17:34:11.898Z,99240.44
2023-03-05T17:37:06.350Z,99239.31
2023-03-05T17:40:08.315Z,99241.56
2023-03-05T17:43:00.755Z,99241.19
2023-03-05T17:45:47.603Z,99250.81
2023-03-05T17:48:32.519Z,99242.59
2023-03-05T17:51:21.976Z,99246.41
2023-03-05T17:54:09.801Z,99231.63
2023-03-05T17:56:56.787Z,99233.94
2023-03-05T17:59:41.501Z,99225.66
2023-03-05T18:02:58.301Z,99237.91
2023-03-05T18:06:00.516Z,99244.06
2023-03-05T18:08:44.616Z,99242.06
2023-03-05T18:11:30.375Z,99235.78
2023-03-05T18:14:16.928Z,99240.13
2023-03-05T18:17:00.957Z,99230.44
2023-03-05T18:19:39.890Z,99236.09
2023-03-05T18:22:31.802Z,99232.13
2023-03-05T18:25:22.564Z,99231.47
2023-03-05T18:28:12.989Z,99237.84
2023-03-05T18:31:19.421Z,99233.50
2023-03-05T18:34:03.180Z,99234.53
2023-03-05T18:36:46.980Z,99226.81
2023-03-05T18:39:29.770Z,99231.88
2023-03-05T18:42:14.832Z,99228.75
2023-03-05T18:45:03.571Z,99236.66
2023-03-05T18:47:59.664Z,99230.25
2023-03-05T18:50:40.858Z,99238.88
2023-03-05T18:53:30.787Z,99237.69
2023-03-05T18:56:22.121Z,99239.16
2023-03-05T18:59:10.487Z,99236.94
2023-03-05T19:01:53.901Z,99230.84
2023-03-05T19:04:46.331Z,99226.34
2023-03-05T19:07:41.245Z,99243.47
2023-03-05T19:10:23.786Z,99238.75
2023-03-05T19:13:57.130Z,99230.47
2023-03-05T19:16:56.508Z,99228.59
2023-03-05T19:19:43.888Z,99234.94
2023-03-05T19:22:36.231Z,99228.59
2023-03-05T19:25:23.542Z,99226.91
2023-03-05T19:28:17.219Z,99232.88
2023-03-05T19:31:14.401Z,99236.34
2023-03-05T19:33:57.303Z,99230.88
2023-03-05T19:36:40.980Z,99241.31
2023-03-05T19:39:24.384Z,99240.66
2023-03-05T19:42:17.074Z,99241.41
2023-03-05T19:45:17.504Z,99237.75
2023-03-05T19:48:03.753Z,99234.13
2023-03-05T19:50:51.384Z,99235.19
2023-03-05T19:53:29.634Z,99234.91
2023-03-05T19:56:15.782Z,99238.97
2023-03-05T19:59:10.266Z,99244.28
2023-03-05T20:02:00.465Z,99237.28
2023-03-05T20:04:52.861Z,99248.94
2023-03-05T20:07:59.250Z,99245.16
2023-03-05T20:10:39.831Z,99240.19
2023-03-05T20:13:29.752Z,99241.38
2023-03-05T20:16:25.296Z,99239.06
2023-03-05T20:19:10.746Z,99233.25
2023-03-05T20:21:49.844Z,99234.91
2023-03-05T20:24:30.642Z,99231.31
2023-03-05T20:27:20.779Z,99237.09
2023-03-05T20:30:05.088Z,99238.13
2023-03-05T20:32:53.297Z,99227.00
2023-03-05T20:35:45.548Z,99224.81
2023-03-05T20:38:37.382Z,99225.47
2023-03-05T20:41:29.796Z,99223.53
2023-03-05T20:44:18.876Z,99214.88
2023-03-05T20:47:37.690Z,99221.50
2023-03-05T20:50:22.966Z,99226.16
2023-03-05T20:53:10.205Z,99218.78
2023-03-05T20:56:10.064Z,99222.94
2023-03-05T20:59:01.315Z,99222.47
2023-03-05T21:01:51.077Z,99220.94
2023-03-05T21:04:40.556Z,99212.28
2023-03-05T21:07:29.749Z,99217.28
2023-03-05T21:10:22.347Z,99217.28
2023-03-05T21:13:08.769Z,99217.09
2023-03-05T21:15:58.355Z,99207.63
2023-03-05T21:18:52.079Z,99212.28
2023-03-05T21:21:45.734Z,99213.16
2023-03-05T21:25:03.378Z,99211.00
2023-03-05T21:28:04.734Z,99212.66
2023-03-05T21:30:59.902Z,99211.00
2023-03-05T21:33:49.140Z,99207.94
2023-03-05T21:36:38.143Z,99217.09
2023-03-05T21:39:27.608Z,99211.13
2023-03-05T21:42:20.178Z,99208.09
2023-03-05T21:45:15.569Z,99216.03
2023-03-05T21:48:02.273Z,99211.72
2023-03-05T21:50:53.851Z,99206.34
2023-03-05T21:53:42.975Z,99209.31
2023-03-05T21:56:41.378Z,99206.44
2023-03-05T21:59:21.995Z,99207.63
2023-03-05T22:02:14.380Z,99194.97
2023-03-05T22:05:03.971Z,99198.13
2023-03-05T22:08:00.423Z,99191.06
2023-03-05T22:10:48.072Z,99191.78
2023-03-05T22:13:31.660Z,99196.28
2023-03-05T22:16:16.186Z,99190.38
2023-03-05T22:19:10.428Z,99198.16
2023-03-05T22:21:54.264Z,99194.97
2023-03-05T22:24:52.600Z,99190.25
2023-03-05T22:27:36.517Z,99192.22
2023-03-05T22:30:18.772Z,99187.53
2023-03-05T22:32:59.388Z,99179.91
2023-03-05T22:35:52.773Z,99182.34
2023-03-05T22:38:36.595Z,99189.22
2023-03-05T22:41:21.365Z,99184.94
2023-03-05T22:44:09.109Z,99180.56
2023-03-05T22:47:03.121Z,99175.22
2023-03-05T22:49:52.014Z,99183.63
2023-03-05T22:52:39.603Z,99173.66
2023-03-05T22:55:24.776Z,99179.53
2023-03-05T22:58:08.957Z,99174.84
2023-03-05T23:00:54.775Z,99173.72
2023-03-05T23:03:42.948Z,99175.94
2023-03-05T23:06:32.784Z,99172.72
2023-03-05T23:09:22.255Z,99173.31
2023-03-05T23:12:05.853Z,99167.69
2023-03-05T23:14:46.018Z,99166.22
2023-03-05T23:17:33.290Z,99160.41
2023-03-05T23:20:21.181Z,99162.06
2023-03-05T23:23:19.777Z,99157.59
2023-03-05T23:26:09.225Z,99162.63
2023-03-05T23:28:54.952Z,99148.44
2023-03-05T23:31:38.777Z,99154.06
2023-03-05T23:34:19.661Z,99163.25
2023-03-05T23:37:06.063Z,99162.03
2023-03-05T23:39:52.544Z,99158.50
2023-03-05T23:42:33.741Z,99162.84
2023-03-05T23:45:27.210Z,99161.03
2023-03-05T23:48:16.788Z,99161.44
2023-03-05T23:51:01.348Z,99161.19
2023-03-05T23:53:49.442Z,99156.34
2023-03-05T23:56:32.226Z,99151.56
2023-03-05T23:59:21.653Z,99161.19
